sensor_id;sensor_type;location;lat;lon;timestamp;temperature;humidity
51725;DHT22;37801;53.224;6.552;2022-12-10T00:01:13;1.00;64.30
51725;DHT22;37801;53.224;6.552;2022-12-10T00:03:39;1.00;63.30
51725;DHT22;37801;53.224;6.552;2022-12-10T00:06:08;1.00;67.60
51725;DHT22;37801;53.224;6.552;2022-12-10T00:08:34;1.00;66.80
51725;DHT22;37801;53.224;6.552;2022-12-10T00:11:03;1.00;70.70
51725;DHT22;37801;53.224;6.552;2022-12-10T00:13:29;1.00;70.50
51725;DHT22;37801;53.224;6.552;2022-12-10T00:15:55;1.00;73.20
51725;DHT22;37801;53.224;6.552;2022-12-10T00:18:24;1.00;66.10
51725;DHT22;37801;53.224;6.552;2022-12-10T00:20:49;1.00;66.30
51725;DHT22;37801;53.224;6.552;2022-12-10T00:23:15;1.00;68.10
51725;DHT22;37801;53.224;6.552;2022-12-10T00:25:41;0.90;65.50
51725;DHT22;37801;53.224;6.552;2022-12-10T00:28:07;1.00;64.00
51725;DHT22;37801;53.224;6.552;2022-12-10T00:30:33;0.90;63.90
51725;DHT22;37801;53.224;6.552;2022-12-10T00:32:59;0.90;65.60
51725;DHT22;37801;53.224;6.552;2022-12-10T00:35:25;1.10;67.70
51725;DHT22;37801;53.224;6.552;2022-12-10T00:37:51;0.90;71.60
51725;DHT22;37801;53.224;6.552;2022-12-10T00:40:16;1.00;70.20
51725;DHT22;37801;53.224;6.552;2022-12-10T00:42:42;1.00;69.10
51725;DHT22;37801;53.224;6.552;2022-12-10T00:45:08;1.00;66.30
51725;DHT22;37801;53.224;6.552;2022-12-10T00:47:34;1.00;67.20
51725;DHT22;37801;53.224;6.552;2022-12-10T00:50:00;1.00;65.20
51725;DHT22;37801;53.224;6.552;2022-12-10T00:52:25;1.00;62.90
51725;DHT22;37801;53.224;6.552;2022-12-10T00:54:51;1.00;61.40
51725;DHT22;37801;53.224;6.552;2022-12-10T00:57:17;1.00;64.80
51725;DHT22;37801;53.224;6.552;2022-12-10T00:59:42;1.00;63.60
51725;DHT22;37801;53.224;6.552;2022-12-10T01:02:08;1.00;62.80
51725;DHT22;37801;53.224;6.552;2022-12-10T01:04:34;1.00;62.90
51725;DHT22;37801;53.224;6.552;2022-12-10T01:06:59;1.00;60.50
51725;DHT22;37801;53.224;6.552;2022-12-10T01:09:27;1.00;59.70
51725;DHT22;37801;53.224;6.552;2022-12-10T01:11:54;1.00;60.90
51725;DHT22;37801;53.224;6.552;2022-12-10T01:14:26;1.00;61.60
51725;DHT22;37801;53.224;6.552;2022-12-10T01:16:57;1.00;61.30
51725;DHT22;37801;53.224;6.552;2022-12-10T01:19:24;1.00;60.60
51725;DHT22;37801;53.224;6.552;2022-12-10T01:21:54;1.00;61.00
51725;DHT22;37801;53.224;6.552;2022-12-10T01:24:21;1.00;63.80
51725;DHT22;37801;53.224;6.552;2022-12-10T01:26:47;1.00;62.10
51725;DHT22;37801;53.224;6.552;2022-12-10T01:29:13;1.00;60.30
51725;DHT22;37801;53.224;6.552;2022-12-10T01:31:39;1.10;62.20
51725;DHT22;37801;53.224;6.552;2022-12-10T01:34:06;1.00;63.20
51725;DHT22;37801;53.224;6.552;2022-12-10T01:36:40;1.00;61.30
51725;DHT22;37801;53.224;6.552;2022-12-10T01:39:08;1.00;62.70
51725;DHT22;37801;53.224;6.552;2022-12-10T01:41:40;1.00;64.50
51725;DHT22;37801;53.224;6.552;2022-12-10T01:46:41;1.00;60.30
51725;DHT22;37801;53.224;6.552;2022-12-10T01:49:12;1.00;60.60
51725;DHT22;37801;53.224;6.552;2022-12-10T01:51:41;1.20;62.80
51725;DHT22;37801;53.224;6.552;2022-12-10T01:54:10;1.00;60.00
51725;DHT22;37801;53.224;6.552;2022-12-10T01:56:43;1.00;56.50
51725;DHT22;37801;53.224;6.552;2022-12-10T01:59:10;0.90;57.90
51725;DHT22;37801;53.224;6.552;2022-12-10T02:13:01;0.90;60.00
51725;DHT22;37801;53.224;6.552;2022-12-10T02:15:37;0.90;59.90
51725;DHT22;37801;53.224;6.552;2022-12-10T02:18:27;0.90;61.40
51725;DHT22;37801;53.224;6.552;2022-12-10T02:21:00;0.80;60.10
51725;DHT22;37801;53.224;6.552;2022-12-10T02:23:32;0.80;60.20
51725;DHT22;37801;53.224;6.552;2022-12-10T02:29:27;0.80;63.40
51725;DHT22;37801;53.224;6.552;2022-12-10T02:31:33;0.80;64.90
51725;DHT22;37801;53.224;6.552;2022-12-10T02:34:03;0.90;61.90
51725;DHT22;37801;53.224;6.552;2022-12-10T02:36:33;0.80;61.80
51725;DHT22;37801;53.224;6.552;2022-12-10T02:39:02;0.80;60.90
51725;DHT22;37801;53.224;6.552;2022-12-10T02:41:36;0.80;65.00
51725;DHT22;37801;53.224;6.552;2022-12-10T02:44:09;0.80;66.10
51725;DHT22;37801;53.224;6.552;2022-12-10T02:46:37;0.90;66.00
51725;DHT22;37801;53.224;6.552;2022-12-10T02:49:06;0.90;66.40
51725;DHT22;37801;53.224;6.552;2022-12-10T02:51:32;0.90;65.30
51725;DHT22;37801;53.224;6.552;2022-12-10T02:54:03;0.90;63.60
51725;DHT22;37801;53.224;6.552;2022-12-10T02:56:33;0.90;66.50
51725;DHT22;37801;53.224;6.552;2022-12-10T03:01:57;0.90;62.60
51725;DHT22;37801;53.224;6.552;2022-12-10T03:04:45;0.90;61.30
51725;DHT22;37801;53.224;6.552;2022-12-10T03:07:22;0.90;63.90
51725;DHT22;37801;53.224;6.552;2022-12-10T03:09:59;0.90;62.80
51725;DHT22;37801;53.224;6.552;2022-12-10T03:12:36;0.80;61.20
51725;DHT22;37801;53.224;6.552;2022-12-10T03:15:08;0.80;61.60
51725;DHT22;37801;53.224;6.552;2022-12-10T03:17:37;0.80;61.10
51725;DHT22;37801;53.224;6.552;2022-12-10T03:20:07;0.80;63.20
51725;DHT22;37801;53.224;6.552;2022-12-10T03:22:35;0.80;62.00
51725;DHT22;37801;53.224;6.552;2022-12-10T03:25:02;0.80;61.30
51725;DHT22;37801;53.224;6.552;2022-12-10T03:27:29;0.80;60.40
51725;DHT22;37801;53.224;6.552;2022-12-10T03:29:57;0.80;64.00
51725;DHT22;37801;53.224;6.552;2022-12-10T03:32:26;0.80;67.70
51725;DHT22;37801;53.224;6.552;2022-12-10T03:34:54;0.90;65.30
51725;DHT22;37801;53.224;6.552;2022-12-10T03:37:21;0.90;62.20
51725;DHT22;37801;53.224;6.552;2022-12-10T03:39:47;0.90;60.20
51725;DHT22;37801;53.224;6.552;2022-12-10T03:42:13;0.90;55.50
51725;DHT22;37801;53.224;6.552;2022-12-10T03:44:38;0.90;59.00
51725;DHT22;37801;53.224;6.552;2022-12-10T03:47:07;0.90;59.30
51725;DHT22;37801;53.224;6.552;2022-12-10T03:49:34;0.90;55.30
51725;DHT22;37801;53.224;6.552;2022-12-10T03:52:00;0.90;53.70
51725;DHT22;37801;53.224;6.552;2022-12-10T03:54:25;0.90;52.80
51725;DHT22;37801;53.224;6.552;2022-12-10T03:56:51;0.90;53.10
51725;DHT22;37801;53.224;6.552;2022-12-10T03:59:17;0.90;54.80
51725;DHT22;37801;53.224;6.552;2022-12-10T04:01:43;0.90;53.50
51725;DHT22;37801;53.224;6.552;2022-12-10T04:04:09;0.90;55.50
51725;DHT22;37801;53.224;6.552;2022-12-10T04:06:38;1.00;52.60
51725;DHT22;37801;53.224;6.552;2022-12-10T04:09:04;1.00;54.00
51725;DHT22;37801;53.224;6.552;2022-12-10T04:11:30;1.00;55.90
51725;DHT22;37801;53.224;6.552;2022-12-10T04:13:55;1.00;50.20
51725;DHT22;37801;53.224;6.552;2022-12-10T04:16:40;0.90;50.70
51725;DHT22;37801;53.224;6.552;2022-12-10T04:19:09;1.00;51.00
51725;DHT22;37801;53.224;6.552;2022-12-10T04:21:36;1.00;48.30
51725;DHT22;37801;53.224;6.552;2022-12-10T04:24:23;1.00;49.00
51725;DHT22;37801;53.224;6.552;2022-12-10T04:27:35;0.90;48.50
51725;DHT22;37801;53.224;6.552;2022-12-10T04:29:59;0.90;46.90
51725;DHT22;37801;53.224;6.552;2022-12-10T04:32:26;1.00;49.00
51725;DHT22;37801;53.224;6.552;2022-12-10T04:34:53;0.90;49.60
51725;DHT22;37801;53.224;6.552;2022-12-10T04:37:19;0.90;48.60
51725;DHT22;37801;53.224;6.552;2022-12-10T04:39:46;0.90;49.60
51725;DHT22;37801;53.224;6.552;2022-12-10T04:42:12;1.00;46.00
51725;DHT22;37801;53.224;6.552;2022-12-10T04:44:39;0.90;47.50
51725;DHT22;37801;53.224;6.552;2022-12-10T04:47:06;0.90;47.40
51725;DHT22;37801;53.224;6.552;2022-12-10T04:49:32;0.90;49.70
51725;DHT22;37801;53.224;6.552;2022-12-10T04:51:58;0.90;48.10
51725;DHT22;37801;53.224;6.552;2022-12-10T04:54:24;0.90;48.90
51725;DHT22;37801;53.224;6.552;2022-12-10T04:56:50;0.90;50.50
51725;DHT22;37801;53.224;6.552;2022-12-10T04:59:16;0.80;50.10
51725;DHT22;37801;53.224;6.552;2022-12-10T05:01:42;0.80;53.20
51725;DHT22;37801;53.224;6.552;2022-12-10T05:04:11;0.80;52.20
51725;DHT22;37801;53.224;6.552;2022-12-10T05:06:37;0.80;58.10
51725;DHT22;37801;53.224;6.552;2022-12-10T05:09:04;1.00;59.50
51725;DHT22;37801;53.224;6.552;2022-12-10T05:11:30;1.00;61.30
51725;DHT22;37801;53.224;6.552;2022-12-10T05:13:57;1.00;56.40
51725;DHT22;37801;53.224;6.552;2022-12-10T05:16:25;0.90;57.00
51725;DHT22;37801;53.224;6.552;2022-12-10T05:18:52;1.00;61.10
51725;DHT22;37801;53.224;6.552;2022-12-10T05:21:20;1.00;62.40
51725;DHT22;37801;53.224;6.552;2022-12-10T05:23:49;1.10;64.80
51725;DHT22;37801;53.224;6.552;2022-12-10T05:26:20;1.10;61.40
51725;DHT22;37801;53.224;6.552;2022-12-10T05:28:48;1.20;62.20
51725;DHT22;37801;53.224;6.552;2022-12-10T05:31:20;1.10;61.30
51725;DHT22;37801;53.224;6.552;2022-12-10T05:33:47;1.20;64.80
51725;DHT22;37801;53.224;6.552;2022-12-10T05:36:15;1.20;67.40
51725;DHT22;37801;53.224;6.552;2022-12-10T05:38:41;1.20;64.00
51725;DHT22;37801;53.224;6.552;2022-12-10T05:41:13;1.20;58.20
51725;DHT22;37801;53.224;6.552;2022-12-10T05:43:40;1.10;58.00
51725;DHT22;37801;53.224;6.552;2022-12-10T05:46:09;1.20;61.00
51725;DHT22;37801;53.224;6.552;2022-12-10T05:48:35;1.10;56.50
51725;DHT22;37801;53.224;6.552;2022-12-10T05:51:06;1.10;56.90
51725;DHT22;37801;53.224;6.552;2022-12-10T05:53:32;1.10;60.70
51725;DHT22;37801;53.224;6.552;2022-12-10T05:56:02;1.10;62.80
51725;DHT22;37801;53.224;6.552;2022-12-10T05:58:29;1.10;67.90
51725;DHT22;37801;53.224;6.552;2022-12-10T06:00:58;1.20;67.00
51725;DHT22;37801;53.224;6.552;2022-12-10T06:03:26;1.20;60.00
51725;DHT22;37801;53.224;6.552;2022-12-10T06:05:52;1.10;62.70
51725;DHT22;37801;53.224;6.552;2022-12-10T06:08:19;1.10;67.70
51725;DHT22;37801;53.224;6.552;2022-12-10T06:10:44;1.20;71.80
51725;DHT22;37801;53.224;6.552;2022-12-10T06:13:10;1.20;73.00
51725;DHT22;37801;53.224;6.552;2022-12-10T06:15:39;1.20;71.00
51725;DHT22;37801;53.224;6.552;2022-12-10T06:18:05;1.20;73.10
51725;DHT22;37801;53.224;6.552;2022-12-10T06:20:31;1.30;75.80
51725;DHT22;37801;53.224;6.552;2022-12-10T06:22:57;1.30;72.90
51725;DHT22;37801;53.224;6.552;2022-12-10T06:25:23;1.20;62.60
51725;DHT22;37801;53.224;6.552;2022-12-10T06:27:49;1.20;67.40
51725;DHT22;37801;53.224;6.552;2022-12-10T06:30:15;1.20;74.10
51725;DHT22;37801;53.224;6.552;2022-12-10T06:32:41;1.30;72.60
51725;DHT22;37801;53.224;6.552;2022-12-10T06:35:09;1.20;70.50
51725;DHT22;37801;53.224;6.552;2022-12-10T06:37:35;1.20;67.30
51725;DHT22;37801;53.224;6.552;2022-12-10T06:40:01;1.20;72.20
51725;DHT22;37801;53.224;6.552;2022-12-10T06:42:27;1.30;74.60
51725;DHT22;37801;53.224;6.552;2022-12-10T06:44:52;1.20;71.10
51725;DHT22;37801;53.224;6.552;2022-12-10T06:47:18;1.20;72.20
51725;DHT22;37801;53.224;6.552;2022-12-10T06:49:44;1.20;70.50
51725;DHT22;37801;53.224;6.552;2022-12-10T06:52:09;1.30;74.90
51725;DHT22;37801;53.224;6.552;2022-12-10T06:54:35;1.30;73.20
51725;DHT22;37801;53.224;6.552;2022-12-10T06:57:01;1.20;70.80
51725;DHT22;37801;53.224;6.552;2022-12-10T06:59:27;1.20;67.80
51725;DHT22;37801;53.224;6.552;2022-12-10T07:01:52;1.20;71.00
51725;DHT22;37801;53.224;6.552;2022-12-10T07:04:18;1.20;73.30
51725;DHT22;37801;53.224;6.552;2022-12-10T07:06:44;1.20;72.00
51725;DHT22;37801;53.224;6.552;2022-12-10T07:09:09;1.20;71.40
51725;DHT22;37801;53.224;6.552;2022-12-10T07:11:36;1.20;71.20
51725;DHT22;37801;53.224;6.552;2022-12-10T07:14:02;1.20;69.10
51725;DHT22;37801;53.224;6.552;2022-12-10T07:16:30;1.20;71.40
51725;DHT22;37801;53.224;6.552;2022-12-10T07:18:58;1.20;71.10
51725;DHT22;37801;53.224;6.552;2022-12-10T07:21:35;1.20;76.30
51725;DHT22;37801;53.224;6.552;2022-12-10T07:24:06;1.20;77.40
51725;DHT22;37801;53.224;6.552;2022-12-10T07:26:34;1.20;76.40
51725;DHT22;37801;53.224;6.552;2022-12-10T07:29:03;1.10;72.20
51725;DHT22;37801;53.224;6.552;2022-12-10T07:31:29;1.10;71.60
51725;DHT22;37801;53.224;6.552;2022-12-10T07:33:57;1.00;71.50
51725;DHT22;37801;53.224;6.552;2022-12-10T07:36:22;0.90;72.40
51725;DHT22;37801;53.224;6.552;2022-12-10T07:38:49;0.90;77.00
51725;DHT22;37801;53.224;6.552;2022-12-10T07:41:15;0.90;80.50
51725;DHT22;37801;53.224;6.552;2022-12-10T07:43:43;0.90;84.20
51725;DHT22;37801;53.224;6.552;2022-12-10T07:46:13;0.90;84.20
51725;DHT22;37801;53.224;6.552;2022-12-10T07:48:40;0.90;85.40
51725;DHT22;37801;53.224;6.552;2022-12-10T07:51:06;0.90;84.60
51725;DHT22;37801;53.224;6.552;2022-12-10T07:53:33;1.00;83.30
51725;DHT22;37801;53.224;6.552;2022-12-10T07:55:59;0.90;82.20
51725;DHT22;37801;53.224;6.552;2022-12-10T07:58:25;0.90;79.50
51725;DHT22;37801;53.224;6.552;2022-12-10T08:00:50;0.90;80.90
51725;DHT22;37801;53.224;6.552;2022-12-10T08:03:16;0.80;77.70
51725;DHT22;37801;53.224;6.552;2022-12-10T08:05:42;0.90;80.80
51725;DHT22;37801;53.224;6.552;2022-12-10T08:08:08;0.90;84.20
51725;DHT22;37801;53.224;6.552;2022-12-10T08:10:35;1.00;87.40
51725;DHT22;37801;53.224;6.552;2022-12-10T08:13:00;0.90;86.80
51725;DHT22;37801;53.224;6.552;2022-12-10T08:15:26;1.00;85.60
51725;DHT22;37801;53.224;6.552;2022-12-10T08:17:54;1.00;84.40
51725;DHT22;37801;53.224;6.552;2022-12-10T08:20:20;1.00;85.20
51725;DHT22;37801;53.224;6.552;2022-12-10T08:22:46;1.00;81.70
51725;DHT22;37801;53.224;6.552;2022-12-10T08:25:12;0.90;74.60
51725;DHT22;37801;53.224;6.552;2022-12-10T08:27:37;0.90;79.00
51725;DHT22;37801;53.224;6.552;2022-12-10T08:30:03;0.80;81.20
51725;DHT22;37801;53.224;6.552;2022-12-10T08:32:29;0.90;79.50
51725;DHT22;37801;53.224;6.552;2022-12-10T08:34:55;0.80;75.20
51725;DHT22;37801;53.224;6.552;2022-12-10T08:37:21;0.80;77.30
51725;DHT22;37801;53.224;6.552;2022-12-10T08:39:46;0.80;81.10
51725;DHT22;37801;53.224;6.552;2022-12-10T08:42:12;0.80;79.70
51725;DHT22;37801;53.224;6.552;2022-12-10T08:44:38;0.80;80.10
51725;DHT22;37801;53.224;6.552;2022-12-10T08:47:03;0.80;79.60
51725;DHT22;37801;53.224;6.552;2022-12-10T08:49:29;0.90;85.20
51725;DHT22;37801;53.224;6.552;2022-12-10T08:51:55;0.90;85.00
51725;DHT22;37801;53.224;6.552;2022-12-10T08:54:21;0.90;82.90
51725;DHT22;37801;53.224;6.552;2022-12-10T08:56:47;0.90;76.40
51725;DHT22;37801;53.224;6.552;2022-12-10T08:59:12;0.90;72.70
51725;DHT22;37801;53.224;6.552;2022-12-10T09:01:38;0.90;71.70
51725;DHT22;37801;53.224;6.552;2022-12-10T09:04:04;0.80;70.80
51725;DHT22;37801;53.224;6.552;2022-12-10T09:06:30;0.90;74.00
51725;DHT22;37801;53.224;6.552;2022-12-10T09:08:56;0.90;74.50
51725;DHT22;37801;53.224;6.552;2022-12-10T09:11:25;1.00;79.70
51725;DHT22;37801;53.224;6.552;2022-12-10T09:13:51;0.90;71.80
51725;DHT22;37801;53.224;6.552;2022-12-10T09:16:17;1.00;75.70
51725;DHT22;37801;53.224;6.552;2022-12-10T09:18:44;1.00;73.60
51725;DHT22;37801;53.224;6.552;2022-12-10T09:21:13;1.10;78.60
51725;DHT22;37801;53.224;6.552;2022-12-10T09:23:40;1.10;78.00
51725;DHT22;37801;53.224;6.552;2022-12-10T09:26:11;1.20;81.90
51725;DHT22;37801;53.224;6.552;2022-12-10T09:28:37;1.20;78.00
51725;DHT22;37801;53.224;6.552;2022-12-10T09:31:04;1.30;74.40
51725;DHT22;37801;53.224;6.552;2022-12-10T09:33:31;1.30;69.40
51725;DHT22;37801;53.224;6.552;2022-12-10T09:35:57;1.30;66.20
51725;DHT22;37801;53.224;6.552;2022-12-10T09:38:22;1.30;64.10
51725;DHT22;37801;53.224;6.552;2022-12-10T09:41:05;1.40;64.70
51725;DHT22;37801;53.224;6.552;2022-12-10T09:46:46;1.40;61.90
51725;DHT22;37801;53.224;6.552;2022-12-10T09:52:03;1.40;66.00
51725;DHT22;37801;53.224;6.552;2022-12-10T09:54:32;1.50;59.60
51725;DHT22;37801;53.224;6.552;2022-12-10T09:57:00;1.50;62.30
51725;DHT22;37801;53.224;6.552;2022-12-10T09:59:38;1.50;59.60
51725;DHT22;37801;53.224;6.552;2022-12-10T10:02:26;1.50;57.60
51725;DHT22;37801;53.224;6.552;2022-12-10T10:05:19;1.50;56.40
51725;DHT22;37801;53.224;6.552;2022-12-10T10:07:49;1.40;46.30
51725;DHT22;37801;53.224;6.552;2022-12-10T10:13:00;1.40;59.20
51725;DHT22;37801;53.224;6.552;2022-12-10T10:15:35;1.40;58.90
51725;DHT22;37801;53.224;6.552;2022-12-10T10:20:49;1.50;61.50
51725;DHT22;37801;53.224;6.552;2022-12-10T10:23:15;1.50;61.60
51725;DHT22;37801;53.224;6.552;2022-12-10T10:25:42;1.50;59.80
51725;DHT22;37801;53.224;6.552;2022-12-10T10:28:15;1.60;60.20
51725;DHT22;37801;53.224;6.552;2022-12-10T10:30:43;1.50;57.20
51725;DHT22;37801;53.224;6.552;2022-12-10T10:33:11;1.60;62.80
51725;DHT22;37801;53.224;6.552;2022-12-10T10:35:54;1.50;63.00
51725;DHT22;37801;53.224;6.552;2022-12-10T10:38:28;1.50;63.40
51725;DHT22;37801;53.224;6.552;2022-12-10T10:40:59;1.40;66.90
51725;DHT22;37801;53.224;6.552;2022-12-10T10:43:47;1.50;74.70
51725;DHT22;37801;53.224;6.552;2022-12-10T10:46:22;1.40;73.10
51725;DHT22;37801;53.224;6.552;2022-12-10T10:48:49;1.30;73.90
51725;DHT22;37801;53.224;6.552;2022-12-10T10:51:19;1.40;76.00
51725;DHT22;37801;53.224;6.552;2022-12-10T10:53:46;1.40;78.50
51725;DHT22;37801;53.224;6.552;2022-12-10T10:56:18;1.40;79.80
51725;DHT22;37801;53.224;6.552;2022-12-10T10:58:59;1.40;80.90
51725;DHT22;37801;53.224;6.552;2022-12-10T11:04:08;1.50;89.20
51725;DHT22;37801;53.224;6.552;2022-12-10T11:06:34;1.60;91.70
51725;DHT22;37801;53.224;6.552;2022-12-10T11:09:00;1.60;91.90
51725;DHT22;37801;53.224;6.552;2022-12-10T11:11:50;1.60;91.40
51725;DHT22;37801;53.224;6.552;2022-12-10T11:14:24;1.70;94.00
51725;DHT22;37801;53.224;6.552;2022-12-10T11:16:50;1.80;91.80
51725;DHT22;37801;53.224;6.552;2022-12-10T11:19:23;1.80;93.10
51725;DHT22;37801;53.224;6.552;2022-12-10T11:21:52;1.80;90.20
51725;DHT22;37801;53.224;6.552;2022-12-10T11:24:19;1.80;84.10
51725;DHT22;37801;53.224;6.552;2022-12-10T11:27:03;1.80;84.80
51725;DHT22;37801;53.224;6.552;2022-12-10T11:32:55;1.70;79.30
51725;DHT22;37801;53.224;6.552;2022-12-10T11:38:25;1.60;81.20
51725;DHT22;37801;53.224;6.552;2022-12-10T11:44:06;1.70;90.70
51725;DHT22;37801;53.224;6.552;2022-12-10T11:58:43;1.80;91.50
51725;DHT22;37801;53.224;6.552;2022-12-10T12:09:08;1.90;92.20
51725;DHT22;37801;53.224;6.552;2022-12-10T12:11:51;1.90;92.50
51725;DHT22;37801;53.224;6.552;2022-12-10T12:14:57;1.90;91.10
51725;DHT22;37801;53.224;6.552;2022-12-10T12:17:28;1.90;91.60
51725;DHT22;37801;53.224;6.552;2022-12-10T12:20:03;1.90;93.50
51725;DHT22;37801;53.224;6.552;2022-12-10T12:22:34;1.90;90.00
51725;DHT22;37801;53.224;6.552;2022-12-10T12:25:32;1.90;92.80
51725;DHT22;37801;53.224;6.552;2022-12-10T12:30:35;1.90;92.30
51725;DHT22;37801;53.224;6.552;2022-12-10T12:33:16;1.90;92.60
51725;DHT22;37801;53.224;6.552;2022-12-10T12:35:52;1.90;93.70
51725;DHT22;37801;53.224;6.552;2022-12-10T12:38:32;1.90;95.60
51725;DHT22;37801;53.224;6.552;2022-12-10T12:44:00;2.10;99.90
51725;DHT22;37801;53.224;6.552;2022-12-10T12:46:48;2.10;99.90
51725;DHT22;37801;53.224;6.552;2022-12-10T12:49:35;2.10;99.90
51725;DHT22;37801;53.224;6.552;2022-12-10T12:54:48;2.20;99.70
51725;DHT22;37801;53.224;6.552;2022-12-10T12:57:25;2.20;99.30
51725;DHT22;37801;53.224;6.552;2022-12-10T13:02:45;2.10;98.60
51725;DHT22;37801;53.224;6.552;2022-12-10T13:05:23;2.10;97.50
51725;DHT22;37801;53.224;6.552;2022-12-10T13:13:28;2.10;97.10
51725;DHT22;37801;53.224;6.552;2022-12-10T13:15:54;2.10;97.20
51725;DHT22;37801;53.224;6.552;2022-12-10T13:18:40;2.00;96.10
51725;DHT22;37801;53.224;6.552;2022-12-10T13:21:30;2.00;98.60
51725;DHT22;37801;53.224;6.552;2022-12-10T13:24:12;2.00;99.90
51725;DHT22;37801;53.224;6.552;2022-12-10T13:27:01;2.00;99.10
51725;DHT22;37801;53.224;6.552;2022-12-10T13:29:28;2.00;98.60
51725;DHT22;37801;53.224;6.552;2022-12-10T13:32:03;2.00;96.70
51725;DHT22;37801;53.224;6.552;2022-12-10T13:34:36;1.90;99.70
51725;DHT22;37801;53.224;6.552;2022-12-10T13:39:37;2.00;99.90
51725;DHT22;37801;53.224;6.552;2022-12-10T13:47:41;2.00;99.90
51725;DHT22;37801;53.224;6.552;2022-12-10T13:53:07;2.10;99.90
51725;DHT22;37801;53.224;6.552;2022-12-10T13:55:55;2.10;99.90
51725;DHT22;37801;53.224;6.552;2022-12-10T13:58:57;2.10;99.90
51725;DHT22;37801;53.224;6.552;2022-12-10T14:01:40;2.10;99.90
51725;DHT22;37801;53.224;6.552;2022-12-10T14:06:41;2.10;99.90
51725;DHT22;37801;53.224;6.552;2022-12-10T14:09:18;2.10;99.90
51725;DHT22;37801;53.224;6.552;2022-12-10T14:11:55;2.10;98.80
51725;DHT22;37801;53.224;6.552;2022-12-10T14:14:35;2.10;99.00
51725;DHT22;37801;53.224;6.552;2022-12-10T14:17:10;2.10;99.90
51725;DHT22;37801;53.224;6.552;2022-12-10T14:19:38;2.10;99.90
51725;DHT22;37801;53.224;6.552;2022-12-10T14:22:08;2.20;99.90
51725;DHT22;37801;53.224;6.552;2022-12-10T14:24:40;2.10;99.90
51725;DHT22;37801;53.224;6.552;2022-12-10T14:27:21;2.10;99.90
51725;DHT22;37801;53.224;6.552;2022-12-10T14:30:04;2.10;99.90
51725;DHT22;37801;53.224;6.552;2022-12-10T14:32:33;2.10;99.90
51725;DHT22;37801;53.224;6.552;2022-12-10T14:35:00;2.10;99.90
51725;DHT22;37801;53.224;6.552;2022-12-10T14:37:31;2.20;99.90
51725;DHT22;37801;53.224;6.552;2022-12-10T14:39:59;2.20;99.90
51725;DHT22;37801;53.224;6.552;2022-12-10T14:42:25;2.20;99.90
51725;DHT22;37801;53.224;6.552;2022-12-10T14:44:57;2.20;99.90
51725;DHT22;37801;53.224;6.552;2022-12-10T14:47:24;2.30;99.90
51725;DHT22;37801;53.224;6.552;2022-12-10T14:49:53;2.30;99.90
51725;DHT22;37801;53.224;6.552;2022-12-10T14:52:32;2.30;99.90
51725;DHT22;37801;53.224;6.552;2022-12-10T14:55:00;2.30;99.90
51725;DHT22;37801;53.224;6.552;2022-12-10T14:57:38;2.30;99.90
51725;DHT22;37801;53.224;6.552;2022-12-10T15:02:37;2.40;99.90
51725;DHT22;37801;53.224;6.552;2022-12-10T15:05:19;2.40;99.90
51725;DHT22;37801;53.224;6.552;2022-12-10T15:10:46;2.30;99.90
51725;DHT22;37801;53.224;6.552;2022-12-10T15:13:40;2.30;99.90
51725;DHT22;37801;53.224;6.552;2022-12-10T15:16:19;2.30;99.90
51725;DHT22;37801;53.224;6.552;2022-12-10T15:18:45;2.30;99.90
51725;DHT22;37801;53.224;6.552;2022-12-10T15:21:23;2.40;99.90
51725;DHT22;37801;53.224;6.552;2022-12-10T15:23:50;2.40;99.90
51725;DHT22;37801;53.224;6.552;2022-12-10T15:26:24;2.30;99.90
51725;DHT22;37801;53.224;6.552;2022-12-10T15:28:51;2.20;93.50
51725;DHT22;37801;53.224;6.552;2022-12-10T15:33:54;2.20;96.30
51725;DHT22;37801;53.224;6.552;2022-12-10T15:36:42;2.30;97.90
51725;DHT22;37801;53.224;6.552;2022-12-10T15:41:40;2.30;99.90
51725;DHT22;37801;53.224;6.552;2022-12-10T15:46:51;2.20;99.90
51725;DHT22;37801;53.224;6.552;2022-12-10T15:49:17;2.30;99.90
51725;DHT22;37801;53.224;6.552;2022-12-10T15:51:43;2.20;99.90
51725;DHT22;37801;53.224;6.552;2022-12-10T15:54:21;2.50;98.20
51725;DHT22;37801;53.224;6.552;2022-12-10T15:56:47;2.20;98.30
51725;DHT22;37801;53.224;6.552;2022-12-10T15:59:13;2.20;98.50
51725;DHT22;37801;53.224;6.552;2022-12-10T16:01:39;2.20;98.80
51725;DHT22;37801;53.224;6.552;2022-12-10T16:04:05;2.10;99.70
51725;DHT22;37801;53.224;6.552;2022-12-10T16:06:30;2.20;98.70
51725;DHT22;37801;53.224;6.552;2022-12-10T16:08:56;2.10;99.90
51725;DHT22;37801;53.224;6.552;2022-12-10T16:11:22;2.10;99.90
51725;DHT22;37801;53.224;6.552;2022-12-10T16:13:51;2.20;99.90
51725;DHT22;37801;53.224;6.552;2022-12-10T16:16:17;2.20;99.50
51725;DHT22;37801;53.224;6.552;2022-12-10T16:18:43;2.10;98.10
51725;DHT22;37801;53.224;6.552;2022-12-10T16:21:09;2.10;99.90
51725;DHT22;37801;53.224;6.552;2022-12-10T16:23:36;2.20;99.90
51725;DHT22;37801;53.224;6.552;2022-12-10T16:26:04;2.10;99.90
51725;DHT22;37801;53.224;6.552;2022-12-10T16:28:34;2.10;99.90
51725;DHT22;37801;53.224;6.552;2022-12-10T16:30:59;2.10;99.90
51725;DHT22;37801;53.224;6.552;2022-12-10T16:33:26;2.10;99.90
51725;DHT22;37801;53.224;6.552;2022-12-10T16:35:53;2.20;99.90
51725;DHT22;37801;53.224;6.552;2022-12-10T16:38:20;2.20;99.90
51725;DHT22;37801;53.224;6.552;2022-12-10T16:40:47;2.20;99.90
51725;DHT22;37801;53.224;6.552;2022-12-10T16:43:18;2.20;99.90
51725;DHT22;37801;53.224;6.552;2022-12-10T16:45:45;2.20;99.90
51725;DHT22;37801;53.224;6.552;2022-12-10T16:48:11;2.20;99.90
51725;DHT22;37801;53.224;6.552;2022-12-10T16:50:37;2.10;99.90
51725;DHT22;37801;53.224;6.552;2022-12-10T16:53:30;2.10;99.70
51725;DHT22;37801;53.224;6.552;2022-12-10T16:56:00;2.10;99.90
51725;DHT22;37801;53.224;6.552;2022-12-10T16:58:25;2.10;99.90
51725;DHT22;37801;53.224;6.552;2022-12-10T17:00:53;2.10;99.90
51725;DHT22;37801;53.224;6.552;2022-12-10T17:03:25;2.00;99.90
51725;DHT22;37801;53.224;6.552;2022-12-10T17:05:59;2.00;99.90
51725;DHT22;37801;53.224;6.552;2022-12-10T17:08:26;2.00;99.90
51725;DHT22;37801;53.224;6.552;2022-12-10T17:10:54;2.10;99.90
51725;DHT22;37801;53.224;6.552;2022-12-10T17:13:39;2.10;99.90
51725;DHT22;37801;53.224;6.552;2022-12-10T17:16:09;2.10;99.90
51725;DHT22;37801;53.224;6.552;2022-12-10T17:18:35;2.20;99.90
51725;DHT22;37801;53.224;6.552;2022-12-10T17:21:01;2.10;99.90
51725;DHT22;37801;53.224;6.552;2022-12-10T17:23:27;2.10;99.90
51725;DHT22;37801;53.224;6.552;2022-12-10T17:25:53;2.10;99.90
51725;DHT22;37801;53.224;6.552;2022-12-10T17:28:21;2.20;99.90
51725;DHT22;37801;53.224;6.552;2022-12-10T17:30:47;2.10;99.90
51725;DHT22;37801;53.224;6.552;2022-12-10T17:33:15;2.10;99.90
51725;DHT22;37801;53.224;6.552;2022-12-10T17:35:43;2.10;99.90
51725;DHT22;37801;53.224;6.552;2022-12-10T17:38:20;2.10;99.90
51725;DHT22;37801;53.224;6.552;2022-12-10T17:40:47;2.10;99.90
51725;DHT22;37801;53.224;6.552;2022-12-10T17:43:13;2.10;99.90
51725;DHT22;37801;53.224;6.552;2022-12-10T17:45:40;2.10;99.90
51725;DHT22;37801;53.224;6.552;2022-12-10T17:48:06;2.10;99.90